sensor_id;sensor_type;location;lat;lon;timestamp;temperature;humidity
72114;SHT31;59989;46.220;19.888;2023-02-28T00:02:54;0.88;74.02
72114;SHT31;59989;46.220;19.888;2023-02-28T00:05:56;0.89;74.00
72114;SHT31;59989;46.220;19.888;2023-02-28T00:08:59;0.89;74.23
72114;SHT31;59989;46.220;19.888;2023-02-28T00:12:01;0.89;74.78
72114;SHT31;59989;46.220;19.888;2023-02-28T00:15:12;0.86;74.51
72114;SHT31;59989;46.220;19.888;2023-02-28T00:18:16;0.85;74.76
72114;SHT31;59989;46.220;19.888;2023-02-28T00:21:19;0.84;74.94
72114;SHT31;59989;46.220;19.888;2023-02-28T00:24:22;0.79;74.89
72114;SHT31;59989;46.220;19.888;2023-02-28T00:27:24;0.78;74.54
72114;SHT31;59989;46.220;19.888;2023-02-28T00:30:27;0.78;74.73
72114;SHT31;59989;46.220;19.888;2023-02-28T00:33:30;0.81;73.82
72114;SHT31;59989;46.220;19.888;2023-02-28T00:36:32;0.76;73.41
72114;SHT31;59989;46.220;19.888;2023-02-28T00:39:36;0.78;74.33
72114;SHT31;59989;46.220;19.888;2023-02-28T00:42:39;0.76;73.81
72114;SHT31;59989;46.220;19.888;2023-02-28T00:45:42;0.76;74.02
72114;SHT31;59989;46.220;19.888;2023-02-28T00:48:44;0.75;74.26
72114;SHT31;59989;46.220;19.888;2023-02-28T00:51:47;0.72;73.96
72114;SHT31;59989;46.220;19.888;2023-02-28T00:54:49;0.71;74.78
72114;SHT31;59989;46.220;19.888;2023-02-28T00:57:51;0.64;75.48
72114;SHT31;59989;46.220;19.888;2023-02-28T01:00:54;0.57;76.46
72114;SHT31;59989;46.220;19.888;2023-02-28T01:03:57;0.48;77.82
72114;SHT31;59989;46.220;19.888;2023-02-28T01:06:59;0.30;78.66
72114;SHT31;59989;46.220;19.888;2023-02-28T01:10:03;0.13;80.36
72114;SHT31;59989;46.220;19.888;2023-02-28T01:13:07;0.00;82.45
72114;SHT31;59989;46.220;19.888;2023-02-28T01:16:12;-0.17;83.77
72114;SHT31;59989;46.220;19.888;2023-02-28T01:19:15;-0.28;84.97
72114;SHT31;59989;46.220;19.888;2023-02-28T01:22:18;-0.39;86.36
72114;SHT31;59989;46.220;19.888;2023-02-28T01:25:21;-0.45;87.25
72114;SHT31;59989;46.220;19.888;2023-02-28T01:28:23;-0.55;87.90
72114;SHT31;59989;46.220;19.888;2023-02-28T01:31:25;-0.61;88.19
72114;SHT31;59989;46.220;19.888;2023-02-28T01:34:28;-0.66;88.77
72114;SHT31;59989;46.220;19.888;2023-02-28T01:37:31;-0.74;88.92
72114;SHT31;59989;46.220;19.888;2023-02-28T01:40:34;-0.76;89.30
72114;SHT31;59989;46.220;19.888;2023-02-28T01:46:46;-0.80;89.68
72114;SHT31;59989;46.220;19.888;2023-02-28T01:49:50;-0.82;89.79
72114;SHT31;59989;46.220;19.888;2023-02-28T01:52:57;-0.80;89.97
72114;SHT31;59989;46.220;19.888;2023-02-28T01:56:03;-0.79;89.99
72114;SHT31;59989;46.220;19.888;2023-02-28T01:59:09;-0.82;90.10
72114;SHT31;59989;46.220;19.888;2023-02-28T02:02:13;-0.83;90.16
72114;SHT31;59989;46.220;19.888;2023-02-28T02:05:21;-0.90;90.13
72114;SHT31;59989;46.220;19.888;2023-02-28T02:08:28;-0.94;90.24
72114;SHT31;59989;46.220;19.888;2023-02-28T02:11:31;-0.93;90.40
72114;SHT31;59989;46.220;19.888;2023-02-28T02:14:48;-0.93;90.70
72114;SHT31;59989;46.220;19.888;2023-02-28T02:17:59;-0.94;90.80
72114;SHT31;59989;46.220;19.888;2023-02-28T02:39:14;-1.03;90.78
72114;SHT31;59989;46.220;19.888;2023-02-28T02:45:46;-1.00;90.88
72114;SHT31;59989;46.220;19.888;2023-02-28T02:48:53;-0.97;90.84
72114;SHT31;59989;46.220;19.888;2023-02-28T02:52:02;-0.93;90.76
72114;SHT31;59989;46.220;19.888;2023-02-28T02:55:08;-0.94;90.77
72114;SHT31;59989;46.220;19.888;2023-02-28T02:58:16;-0.94;90.74
72114;SHT31;59989;46.220;19.888;2023-02-28T03:01:22;-0.94;90.62
72114;SHT31;59989;46.220;19.888;2023-02-28T03:04:40;-0.90;90.82
72114;SHT31;59989;46.220;19.888;2023-02-28T03:07:44;-0.90;90.82
72114;SHT31;59989;46.220;19.888;2023-02-28T03:10:52;-0.91;90.81
72114;SHT31;59989;46.220;19.888;2023-02-28T03:24:27;-0.93;90.72
72114;SHT31;59989;46.220;19.888;2023-02-28T03:37:13;-0.89;90.67
72114;SHT31;59989;46.220;19.888;2023-02-28T03:40:23;-0.90;90.90
72114;SHT31;59989;46.220;19.888;2023-02-28T03:43:30;-0.96;90.83
72114;SHT31;59989;46.220;19.888;2023-02-28T03:46:38;-0.93;90.76
72114;SHT31;59989;46.220;19.888;2023-02-28T03:49:48;-0.89;90.83
72114;SHT31;59989;46.220;19.888;2023-02-28T03:52:58;-0.90;90.93
72114;SHT31;59989;46.220;19.888;2023-02-28T03:59:45;-0.93;90.91
72114;SHT31;59989;46.220;19.888;2023-02-28T04:02:49;-0.90;90.97
72114;SHT31;59989;46.220;19.888;2023-02-28T04:05:55;-0.94;91.02
72114;SHT31;59989;46.220;19.888;2023-02-28T04:08:58;-0.94;91.11
72114;SHT31;59989;46.220;19.888;2023-02-28T04:12:02;-0.94;91.23
72114;SHT31;59989;46.220;19.888;2023-02-28T04:15:05;-0.94;91.20
72114;SHT31;59989;46.220;19.888;2023-02-28T04:18:08;-0.91;91.34
72114;SHT31;59989;46.220;19.888;2023-02-28T04:21:11;-0.94;91.18
72114;SHT31;59989;46.220;19.888;2023-02-28T04:24:19;-0.89;91.07
72114;SHT31;59989;46.220;19.888;2023-02-28T04:27:22;-0.96;91.01
72114;SHT31;59989;46.220;19.888;2023-02-28T04:30:24;-0.94;91.07
72114;SHT31;59989;46.220;19.888;2023-02-28T04:33:27;-0.99;91.12
72114;SHT31;59989;46.220;19.888;2023-02-28T04:36:30;-0.91;91.21
72114;SHT31;59989;46.220;19.888;2023-02-28T04:39:35;-0.94;91.29
72114;SHT31;59989;46.220;19.888;2023-02-28T04:42:38;-1.01;91.12
72114;SHT31;59989;46.220;19.888;2023-02-28T04:45:41;-1.00;91.18
72114;SHT31;59989;46.220;19.888;2023-02-28T04:48:43;-0.97;91.27
72114;SHT31;59989;46.220;19.888;2023-02-28T04:51:46;-0.99;91.32
72114;SHT31;59989;46.220;19.888;2023-02-28T04:54:49;-0.96;91.26
72114;SHT31;59989;46.220;19.888;2023-02-28T04:57:51;-1.00;91.15
72114;SHT31;59989;46.220;19.888;2023-02-28T05:01:01;-0.99;91.22
72114;SHT31;59989;46.220;19.888;2023-02-28T05:04:04;-1.00;91.26
72114;SHT31;59989;46.220;19.888;2023-02-28T05:07:06;-1.00;91.21
72114;SHT31;59989;46.220;19.888;2023-02-28T05:10:10;-1.03;91.36
72114;SHT31;59989;46.220;19.888;2023-02-28T05:13:13;-1.03;91.25
72114;SHT31;59989;46.220;19.888;2023-02-28T05:16:17;-1.04;91.23
72114;SHT31;59989;46.220;19.888;2023-02-28T05:19:19;-1.00;91.24
72114;SHT31;59989;46.220;19.888;2023-02-28T05:22:23;-0.99;91.34
72114;SHT31;59989;46.220;19.888;2023-02-28T05:25:26;-1.01;91.16
72114;SHT31;59989;46.220;19.888;2023-02-28T05:28:28;-1.01;91.23
72114;SHT31;59989;46.220;19.888;2023-02-28T05:31:31;-1.01;91.24
72114;SHT31;59989;46.220;19.888;2023-02-28T05:34:34;-1.01;91.27
72114;SHT31;59989;46.220;19.888;2023-02-28T05:37:37;-0.97;91.20
72114;SHT31;59989;46.220;19.888;2023-02-28T05:40:40;-0.99;91.03
72114;SHT31;59989;46.220;19.888;2023-02-28T05:43:42;-0.93;91.16
72114;SHT31;59989;46.220;19.888;2023-02-28T05:46:45;-0.91;91.12
72114;SHT31;59989;46.220;19.888;2023-02-28T05:49:48;-0.94;90.79
72114;SHT31;59989;46.220;19.888;2023-02-28T05:52:51;-0.89;90.89
72114;SHT31;59989;46.220;19.888;2023-02-28T05:55:53;-0.83;90.99
72114;SHT31;59989;46.220;19.888;2023-02-28T05:58:56;-0.84;90.95
72114;SHT31;59989;46.220;19.888;2023-02-28T06:01:59;-0.83;90.86
72114;SHT31;59989;46.220;19.888;2023-02-28T06:05:02;-0.76;90.81
72114;SHT31;59989;46.220;19.888;2023-02-28T06:08:04;-0.72;90.71
72114;SHT31;59989;46.220;19.888;2023-02-28T06:11:09;-0.69;90.75
72114;SHT31;59989;46.220;19.888;2023-02-28T06:14:17;-0.74;90.76
72114;SHT31;59989;46.220;19.888;2023-02-28T06:17:20;-0.70;90.79
72114;SHT31;59989;46.220;19.888;2023-02-28T06:20:24;-0.68;90.84
72114;SHT31;59989;46.220;19.888;2023-02-28T06:23:28;-0.66;90.80
72114;SHT31;59989;46.220;19.888;2023-02-28T06:26:30;-0.72;90.74
72114;SHT31;59989;46.220;19.888;2023-02-28T06:29:34;-0.66;90.67
72114;SHT31;59989;46.220;19.888;2023-02-28T06:32:37;-0.59;90.71
72114;SHT31;59989;46.220;19.888;2023-02-28T06:35:39;-0.58;90.35
72114;SHT31;59989;46.220;19.888;2023-02-28T06:38:42;-0.53;90.26
72114;SHT31;59989;46.220;19.888;2023-02-28T06:41:46;-0.49;90.28
72114;SHT31;59989;46.220;19.888;2023-02-28T06:44:57;-0.45;90.01
72114;SHT31;59989;46.220;19.888;2023-02-28T06:47:59;-0.42;90.14
72114;SHT31;59989;46.220;19.888;2023-02-28T06:51:15;-0.41;89.87
72114;SHT31;59989;46.220;19.888;2023-02-28T06:54:17;-0.34;89.63
72114;SHT31;59989;46.220;19.888;2023-02-28T06:57:20;-0.26;89.75
72114;SHT31;59989;46.220;19.888;2023-02-28T07:00:22;-0.24;89.91
72114;SHT31;59989;46.220;19.888;2023-02-28T07:03:25;-0.21;89.51
72114;SHT31;59989;46.220;19.888;2023-02-28T07:06:28;-0.14;89.50
72114;SHT31;59989;46.220;19.888;2023-02-28T07:09:30;-0.13;89.41
72114;SHT31;59989;46.220;19.888;2023-02-28T07:12:33;-0.19;89.35
72114;SHT31;59989;46.220;19.888;2023-02-28T07:15:37;-0.19;89.22
72114;SHT31;59989;46.220;19.888;2023-02-28T07:18:44;-0.13;89.41
72114;SHT31;59989;46.220;19.888;2023-02-28T07:21:46;-0.07;89.32
72114;SHT31;59989;46.220;19.888;2023-02-28T07:24:49;0.03;88.91
72114;SHT31;59989;46.220;19.888;2023-02-28T07:27:53;0.05;88.84
72114;SHT31;59989;46.220;19.888;2023-02-28T07:30:56;0.07;88.92
72114;SHT31;59989;46.220;19.888;2023-02-28T07:33:59;0.10;88.69
72114;SHT31;59989;46.220;19.888;2023-02-28T07:37:01;0.18;88.79
72114;SHT31;59989;46.220;19.888;2023-02-28T07:40:07;0.18;88.30
72114;SHT31;59989;46.220;19.888;2023-02-28T07:43:10;0.20;88.36
72114;SHT31;59989;46.220;19.888;2023-02-28T07:46:15;0.24;88.15
72114;SHT31;59989;46.220;19.888;2023-02-28T07:49:18;0.27;88.36
72114;SHT31;59989;46.220;19.888;2023-02-28T07:52:21;0.45;87.84
72114;SHT31;59989;46.220;19.888;2023-02-28T07:55:23;0.30;87.76
72114;SHT31;59989;46.220;19.888;2023-02-28T07:58:26;0.41;87.83
72114;SHT31;59989;46.220;19.888;2023-02-28T08:01:29;0.65;87.89
72114;SHT31;59989;46.220;19.888;2023-02-28T08:04:32;0.64;87.05
72114;SHT31;59989;46.220;19.888;2023-02-28T08:07:35;0.74;87.03
72114;SHT31;59989;46.220;19.888;2023-02-28T08:10:38;0.76;87.13
72114;SHT31;59989;46.220;19.888;2023-02-28T08:13:40;0.97;86.91
72114;SHT31;59989;46.220;19.888;2023-02-28T08:16:44;0.96;86.71
72114;SHT31;59989;46.220;19.888;2023-02-28T08:19:47;1.06;86.43
72114;SHT31;59989;46.220;19.888;2023-02-28T08:22:49;0.89;86.81
72114;SHT31;59989;46.220;19.888;2023-02-28T08:25:56;0.76;86.76
72114;SHT31;59989;46.220;19.888;2023-02-28T08:28:58;0.84;86.55
72114;SHT31;59989;46.220;19.888;2023-02-28T08:32:03;0.97;86.26
72114;SHT31;59989;46.220;19.888;2023-02-28T08:35:06;1.02;86.15
72114;SHT31;59989;46.220;19.888;2023-02-28T08:38:08;1.13;86.03
72114;SHT31;59989;46.220;19.888;2023-02-28T08:41:12;1.22;85.50
72114;SHT31;59989;46.220;19.888;2023-02-28T08:44:15;1.24;85.28
72114;SHT31;59989;46.220;19.888;2023-02-28T08:47:18;1.26;84.98
72114;SHT31;59989;46.220;19.888;2023-02-28T08:50:22;1.44;84.72
72114;SHT31;59989;46.220;19.888;2023-02-28T08:53:25;1.55;83.86
72114;SHT31;59989;46.220;19.888;2023-02-28T08:56:28;1.63;84.15
72114;SHT31;59989;46.220;19.888;2023-02-28T08:59:31;1.74;84.85
72114;SHT31;59989;46.220;19.888;2023-02-28T09:02:35;1.82;84.17
72114;SHT31;59989;46.220;19.888;2023-02-28T09:05:39;1.72;83.90
72114;SHT31;59989;46.220;19.888;2023-02-28T09:08:42;1.54;84.10
72114;SHT31;59989;46.220;19.888;2023-02-28T09:11:44;1.60;83.88
72114;SHT31;59989;46.220;19.888;2023-02-28T09:14:47;1.64;84.52
72114;SHT31;59989;46.220;19.888;2023-02-28T09:17:49;1.85;84.85
72114;SHT31;59989;46.220;19.888;2023-02-28T09:20:52;1.77;83.89
72114;SHT31;59989;46.220;19.888;2023-02-28T09:23:54;1.94;83.98
72114;SHT31;59989;46.220;19.888;2023-02-28T09:26:58;2.19;83.65
72114;SHT31;59989;46.220;19.888;2023-02-28T09:30:07;2.29;83.42
72114;SHT31;59989;46.220;19.888;2023-02-28T09:33:10;2.20;83.60
72114;SHT31;59989;46.220;19.888;2023-02-28T09:36:12;2.34;83.85
72114;SHT31;59989;46.220;19.888;2023-02-28T09:39:15;2.18;83.91
72114;SHT31;59989;46.220;19.888;2023-02-28T09:42:21;2.37;84.57
72114;SHT31;59989;46.220;19.888;2023-02-28T09:45:35;2.36;83.69
72114;SHT31;59989;46.220;19.888;2023-02-28T09:48:41;2.54;83.49
72114;SHT31;59989;46.220;19.888;2023-02-28T09:52:21;2.50;83.02
72114;SHT31;59989;46.220;19.888;2023-02-28T09:55:34;2.40;84.02
72114;SHT31;59989;46.220;19.888;2023-02-28T09:58:53;2.22;84.50
72114;SHT31;59989;46.220;19.888;2023-02-28T10:05:52;2.23;84.61
72114;SHT31;59989;46.220;19.888;2023-02-28T10:12:27;1.82;85.46
72114;SHT31;59989;46.220;19.888;2023-02-28T10:15:32;1.81;85.82
72114;SHT31;59989;46.220;19.888;2023-02-28T10:18:46;1.92;85.99
72114;SHT31;59989;46.220;19.888;2023-02-28T10:21:56;2.02;85.87
72114;SHT31;59989;46.220;19.888;2023-02-28T10:25:00;1.98;85.65
72114;SHT31;59989;46.220;19.888;2023-02-28T10:28:11;2.22;85.87
72114;SHT31;59989;46.220;19.888;2023-02-28T10:31:19;2.25;85.40
72114;SHT31;59989;46.220;19.888;2023-02-28T10:34:21;2.29;85.40
72114;SHT31;59989;46.220;19.888;2023-02-28T10:37:24;2.36;85.31
72114;SHT31;59989;46.220;19.888;2023-02-28T10:40:34;2.32;85.23
72114;SHT31;59989;46.220;19.888;2023-02-28T10:43:41;2.22;85.26
72114;SHT31;59989;46.220;19.888;2023-02-28T10:46:45;2.29;85.95
72114;SHT31;59989;46.220;19.888;2023-02-28T10:49:48;2.40;85.94
72114;SHT31;59989;46.220;19.888;2023-02-28T10:52:52;2.39;85.69
72114;SHT31;59989;46.220;19.888;2023-02-28T10:59:29;2.23;86.15
72114;SHT31;59989;46.220;19.888;2023-02-28T11:02:35;2.25;86.64
72114;SHT31;59989;46.220;19.888;2023-02-28T11:05:38;2.25;86.73
72114;SHT31;59989;46.220;19.888;2023-02-28T11:08:57;2.26;86.63
72114;SHT31;59989;46.220;19.888;2023-02-28T11:12:06;2.20;87.12
72114;SHT31;59989;46.220;19.888;2023-02-28T11:15:25;2.26;86.99
72114;SHT31;59989;46.220;19.888;2023-02-28T11:18:30;2.25;87.08
72114;SHT31;59989;46.220;19.888;2023-02-28T11:21:37;2.28;87.59
72114;SHT31;59989;46.220;19.888;2023-02-28T11:24:45;2.30;87.16
72114;SHT31;59989;46.220;19.888;2023-02-28T11:27:50;2.18;87.22
72114;SHT31;59989;46.220;19.888;2023-02-28T11:34:26;2.16;86.95
72114;SHT31;59989;46.220;19.888;2023-02-28T11:37:30;2.15;86.72
72114;SHT31;59989;46.220;19.888;2023-02-28T11:40:49;2.34;86.65
72114;SHT31;59989;46.220;19.888;2023-02-28T12:14:30;2.44;86.99
72114;SHT31;59989;46.220;19.888;2023-02-28T12:17:55;2.33;86.86
72114;SHT31;59989;46.220;19.888;2023-02-28T12:28:29;2.46;87.67
72114;SHT31;59989;46.220;19.888;2023-02-28T12:31:36;2.50;87.59
72114;SHT31;59989;46.220;19.888;2023-02-28T12:34:46;2.44;87.56
72114;SHT31;59989;46.220;19.888;2023-02-28T12:38:14;2.50;87.49
72114;SHT31;59989;46.220;19.888;2023-02-28T12:41:42;2.41;87.75
72114;SHT31;59989;46.220;19.888;2023-02-28T12:44:56;2.40;88.05
72114;SHT31;59989;46.220;19.888;2023-02-28T12:48:04;2.43;87.89
72114;SHT31;59989;46.220;19.888;2023-02-28T12:51:09;2.44;87.76
72114;SHT31;59989;46.220;19.888;2023-02-28T13:00:55;2.37;88.34
72114;SHT31;59989;46.220;19.888;2023-02-28T13:11:48;2.41;88.80
72114;SHT31;59989;46.220;19.888;2023-02-28T13:15:15;2.40;88.78
72114;SHT31;59989;46.220;19.888;2023-02-28T13:18:31;2.41;88.74
72114;SHT31;59989;46.220;19.888;2023-02-28T13:21:42;2.36;88.87
72114;SHT31;59989;46.220;19.888;2023-02-28T13:24:55;2.40;88.93
72114;SHT31;59989;46.220;19.888;2023-02-28T13:28:02;2.41;88.89
72114;SHT31;59989;46.220;19.888;2023-02-28T13:31:07;2.40;88.92
72114;SHT31;59989;46.220;19.888;2023-02-28T13:34:15;2.39;89.15
72114;SHT31;59989;46.220;19.888;2023-02-28T13:40:29;2.46;88.97
72114;SHT31;59989;46.220;19.888;2023-02-28T13:53:41;2.43;89.50
72114;SHT31;59989;46.220;19.888;2023-02-28T14:06:51;2.39;89.66
72114;SHT31;59989;46.220;19.888;2023-02-28T14:10:06;2.40;89.61
72114;SHT31;59989;46.220;19.888;2023-02-28T14:13:14;2.30;89.56
72114;SHT31;59989;46.220;19.888;2023-02-28T14:16:20;2.34;89.61
72114;SHT31;59989;46.220;19.888;2023-02-28T14:19:31;2.36;89.77
72114;SHT31;59989;46.220;19.888;2023-02-28T14:26:19;2.33;90.21
72114;SHT31;59989;46.220;19.888;2023-02-28T14:33:11;2.20;90.36
72114;SHT31;59989;46.220;19.888;2023-02-28T14:36:20;2.22;90.57
72114;SHT31;59989;46.220;19.888;2023-02-28T14:39:25;2.32;90.50
72114;SHT31;59989;46.220;19.888;2023-02-28T14:42:36;2.36;90.51
72114;SHT31;59989;46.220;19.888;2023-02-28T14:45:50;2.43;90.64
72114;SHT31;59989;46.220;19.888;2023-02-28T14:48:53;2.44;90.44
72114;SHT31;59989;46.220;19.888;2023-02-28T14:55:18;2.39;90.54
72114;SHT31;59989;46.220;19.888;2023-02-28T15:01:29;2.40;90.79
72114;SHT31;59989;46.220;19.888;2023-02-28T15:04:34;2.22;90.67
72114;SHT31;59989;46.220;19.888;2023-02-28T15:07:36;2.19;90.88
72114;SHT31;59989;46.220;19.888;2023-02-28T15:10:45;2.19;91.03
72114;SHT31;59989;46.220;19.888;2023-02-28T15:13:54;2.18;90.95
72114;SHT31;59989;46.220;19.888;2023-02-28T15:17:07;2.22;91.02
72114;SHT31;59989;46.220;19.888;2023-02-28T15:20:12;2.20;91.13
72114;SHT31;59989;46.220;19.888;2023-02-28T15:23:19;2.20;91.07
72114;SHT31;59989;46.220;19.888;2023-02-28T15:26:27;2.33;91.13
72114;SHT31;59989;46.220;19.888;2023-02-28T15:29:46;2.30;91.03
72114;SHT31;59989;46.220;19.888;2023-02-28T15:33:04;2.23;91.13
72114;SHT31;59989;46.220;19.888;2023-02-28T15:36:15;2.18;91.31
72114;SHT31;59989;46.220;19.888;2023-02-28T15:39:25;2.19;91.41
72114;SHT31;59989;46.220;19.888;2023-02-28T15:42:29;2.20;91.34
72114;SHT31;59989;46.220;19.888;2023-02-28T15:45:52;2.23;91.30
72114;SHT31;59989;46.220;19.888;2023-02-28T15:48:56;2.20;91.23
72114;SHT31;59989;46.220;19.888;2023-02-28T15:51:59;2.22;91.29
72114;SHT31;59989;46.220;19.888;2023-02-28T15:55:18;2.20;91.31
72114;SHT31;59989;46.220;19.888;2023-02-28T15:58:22;2.16;91.42
72114;SHT31;59989;46.220;19.888;2023-02-28T16:01:27;2.15;91.36
72114;SHT31;59989;46.220;19.888;2023-02-28T16:04:32;2.16;91.49
72114;SHT31;59989;46.220;19.888;2023-02-28T16:07:36;2.15;91.49
72114;SHT31;59989;46.220;19.888;2023-02-28T16:10:40;2.18;91.64
72114;SHT31;59989;46.220;19.888;2023-02-28T16:13:42;2.13;91.65
72114;SHT31;59989;46.220;19.888;2023-02-28T16:16:51;2.09;91.51
72114;SHT31;59989;46.220;19.888;2023-02-28T16:19:55;2.06;91.69
72114;SHT31;59989;46.220;19.888;2023-02-28T16:22:58;2.08;91.85
72114;SHT31;59989;46.220;19.888;2023-02-28T16:26:05;2.09;91.78
72114;SHT31;59989;46.220;19.888;2023-02-28T16:29:13;2.11;91.83
72114;SHT31;59989;46.220;19.888;2023-02-28T16:32:18;2.13;91.98
72114;SHT31;59989;46.220;19.888;2023-02-28T16:35:21;2.11;91.86
72114;SHT31;59989;46.220;19.888;2023-02-28T16:38:24;2.09;91.91
72114;SHT31;59989;46.220;19.888;2023-02-28T16:41:28;2.08;91.88
72114;SHT31;59989;46.220;19.888;2023-02-28T16:44:33;2.12;91.74
72114;SHT31;59989;46.220;19.888;2023-02-28T16:47:36;2.09;91.77
72114;SHT31;59989;46.220;19.888;2023-02-28T16:50:40;2.11;91.91
72114;SHT31;59989;46.220;19.888;2023-02-28T16:53:43;2.08;91.92
72114;SHT31;59989;46.220;19.888;2023-02-28T16:56:48;2.08;92.01
72114;SHT31;59989;46.220;19.888;2023-02-28T16:59:50;2.08;91.99
72114;SHT31;59989;46.220;19.888;2023-02-28T17:02:54;2.03;91.99
72114;SHT31;59989;46.220;19.888;2023-02-28T17:05:57;2.08;92.06
72114;SHT31;59989;46.220;19.888;2023-02-28T17:08:59;2.12;92.02
72114;SHT31;59989;46.220;19.888;2023-02-28T17:12:02;2.03;92.06
72114;SHT31;59989;46.220;19.888;2023-02-28T17:15:05;2.02;91.94
72114;SHT31;59989;46.220;19.888;2023-02-28T17:18:16;2.01;92.09
72114;SHT31;59989;46.220;19.888;2023-02-28T17:21:21;2.02;92.13
72114;SHT31;59989;46.220;19.888;2023-02-28T17:24:23;1.99;92.17
72114;SHT31;59989;46.220;19.888;2023-02-28T17:27:32;2.03;92.23
72114;SHT31;59989;46.220;19.888;2023-02-28T17:30:35;2.05;92.32
72114;SHT31;59989;46.220;19.888;2023-02-28T17:33:37;2.06;92.33
72114;SHT31;59989;46.220;19.888;2023-02-28T17:36:40;2.09;92.38
72114;SHT31;59989;46.220;19.888;2023-02-28T17:39:43;2.05;92.43
72114;SHT31;59989;46.220;19.888;2023-02-28T17:42:47;2.08;92.38
72114;SHT31;59989;46.220;19.888;2023-02-28T17:45:50;2.09;92.30
72114;SHT31;59989;46.220;19.888;2023-02-28T17:48:54;2.06;92.26
72114;SHT31;59989;46.220;19.888;2023-02-28T17:51:56;2.11;92.27
72114;SHT31;59989;46.220;19.888;2023-02-28T17:54:59;2.12;92.34
72114;SHT31;59989;46.220;19.888;2023-02-28T17:58:02;2.11;92.26
72114;SHT31;59989;46.220;19.888;2023-02-28T18:01:05;2.09;92.30
72114;SHT31;59989;46.220;19.888;2023-02-28T18:04:08;2.11;92.28
72114;SHT31;59989;46.220;19.888;2023-02-28T18:07:11;2.11;92.34
72114;SHT31;59989;46.220;19.888;2023-02-28T18:10:17;2.11;92.30
72114;SHT31;59989;46.220;19.888;2023-02-28T18:13:22;2.13;92.31
72114;SHT31;59989;46.220;19.888;2023-02-28T18:16:25;2.13;92.33
72114;SHT31;59989;46.220;19.888;2023-02-28T18:19:29;2.15;92.34
72114;SHT31;59989;46.220;19.888;2023-02-28T18:22:32;2.19;92.40
72114;SHT31;59989;46.220;19.888;2023-02-28T18:25:39;2.20;92.24
72114;SHT31;59989;46.220;19.888;2023-02-28T18:28:44;2.23;92.27
72114;SHT31;59989;46.220;19.888;2023-02-28T18:31:47;2.23;92.28
72114;SHT31;59989;46.220;19.888;2023-02-28T18:34:50;2.22;92.28
72114;SHT31;59989;46.220;19.888;2023-02-28T18:37:53;2.26;92.24
72114;SHT31;59989;46.220;19.888;2023-02-28T18:40:59;2.26;92.21
72114;SHT31;59989;46.220;19.888;2023-02-28T18:44:02;2.33;92.10
72114;SHT31;59989;46.220;19.888;2023-02-28T18:47:20;2.32;92.07
72114;SHT31;59989;46.220;19.888;2023-02-28T18:50:25;2.32;92.06
72114;SHT31;59989;46.220;19.888;2023-02-28T18:53:28;2.37;91.98
72114;SHT31;59989;46.220;19.888;2023-02-28T18:56:30;2.34;91.96
72114;SHT31;59989;46.220;19.888;2023-02-28T18:59:34;2.36;91.90
72114;SHT31;59989;46.220;19.888;2023-02-28T19:02:38;2.37;91.93
72114;SHT31;59989;46.220;19.888;2023-02-28T19:05:41;2.43;91.90
72114;SHT31;59989;46.220;19.888;2023-02-28T19:08:44;2.49;91.94
72114;SHT31;59989;46.220;19.888;2023-02-28T19:11:47;2.49;91.81
72114;SHT31;59989;46.220;19.888;2023-02-28T19:14:50;2.47;91.79
72114;SHT31;59989;46.220;19.888;2023-02-28T19:17:52;2.46;91.78
72114;SHT31;59989;46.220;19.888;2023-02-28T19:20:55;2.46;91.81
72114;SHT31;59989;46.220;19.888;2023-02-28T19:23:57;2.49;91.74
72114;SHT31;59989;46.220;19.888;2023-02-28T19:27:00;2.47;91.83
72114;SHT31;59989;46.220;19.888;2023-02-28T19:30:03;2.49;91.90
72114;SHT31;59989;46.220;19.888;2023-02-28T19:33:08;2.49;91.83
72114;SHT31;59989;46.220;19.888;2023-02-28T19:36:11;2.50;91.82
72114;SHT31;59989;46.220;19.888;2023-02-28T19:39:15;2.46;91.94
72114;SHT31;59989;46.220;19.888;2023-02-28T19:42:20;2.49;91.84
72114;SHT31;59989;46.220;19.888;2023-02-28T19:45:23;2.47;91.90
72114;SHT31;59989;46.220;19.888;2023-02-28T19:48:26;2.47;91.95
72114;SHT31;59989;46.220;19.888;2023-02-28T19:51:31;2.46;92.04
72114;SHT31;59989;46.220;19.888;2023-02-28T19:54:35;2.49;92.07
72114;SHT31;59989;46.220;19.888;2023-02-28T19:57:38;2.49;91.98
72114;SHT31;59989;46.220;19.888;2023-02-28T20:00:41;2.46;92.04
72114;SHT31;59989;46.220;19.888;2023-02-28T20:03:48;2.47;92.09
72114;SHT31;59989;46.220;19.888;2023-02-28T20:06:52;2.47;92.09
72114;SHT31;59989;46.220;19.888;2023-02-28T20:09:55;2.46;92.12
72114;SHT31;59989;46.220;19.888;2023-02-28T20:12:58;2.50;92.05
72114;SHT31;59989;46.220;19.888;2023-02-28T20:16:02;2.47;91.94
72114;SHT31;59989;46.220;19.888;2023-02-28T20:19:07;2.49;92.00
72114;SHT31;59989;46.220;19.888;2023-02-28T20:22:10;2.51;91.93
72114;SHT31;59989;46.220;19.888;2023-02-28T20:25:13;2.51;91.96
72114;SHT31;59989;46.220;19.888;2023-02-28T20:28:19;2.51;91.81
72114;SHT31;59989;46.220;19.888;2023-02-28T20:31:23;2.53;91.78
72114;SHT31;59989;46.220;19.888;2023-02-28T20:34:27;2.57;91.82
72114;SHT31;59989;46.220;19.888;2023-02-28T20:37:30;2.53;91.84
72114;SHT31;59989;46.220;19.888;2023-02-28T20:40:33;2.56;91.73
72114;SHT31;59989;46.220;19.888;2023-02-28T20:43:36;2.56;91.61
72114;SHT31;59989;46.220;19.888;2023-02-28T20:46:39;2.57;91.82
72114;SHT31;59989;46.220;19.888;2023-02-28T20:49:44;2.60;91.87
72114;SHT31;59989;46.220;19.888;2023-02-28T20:52:47;2.60;91.77
72114;SHT31;59989;46.220;19.888;2023-02-28T20:58:56;2.61;91.76
72114;SHT31;59989;46.220;19.888;2023-02-28T21:01:59;2.61;91.79
72114;SHT31;59989;46.220;19.888;2023-02-28T21:05:02;2.62;91.66
72114;SHT31;59989;46.220;19.888;2023-02-28T21:08:05;2.64;91.63
72114;SHT31;59989;46.220;19.888;2023-02-28T21:11:13;2.60;91.59
72114;SHT31;59989;46.220;19.888;2023-02-28T21:14:16;2.60;91.62
72114;SHT31;59989;46.220;19.888;2023-02-28T21:17:19;2.56;91.65
72114;SHT31;59989;46.220;19.888;2023-02-28T21:20:22;2.57;91.82
72114;SHT31;59989;46.220;19.888;2023-02-28T21:23:24;2.53;91.86
72114;SHT31;59989;46.220;19.888;2023-02-28T21:26:27;2.50;92.04
72114;SHT31;59989;46.220;19.888;2023-02-28T21:29:31;2.50;92.11
72114;SHT31;59989;46.220;19.888;2023-02-28T21:32:34;2.53;92.11
72114;SHT31;59989;46.220;19.888;2023-02-28T21:35:36;2.57;92.12
72114;SHT31;59989;46.220;19.888;2023-02-28T21:38:40;2.54;91.97
72114;SHT31;59989;46.220;19.888;2023-02-28T21:41:43;2.56;91.96
72114;SHT31;59989;46.220;19.888;2023-02-28T21:44:46;2.58;91.95
72114;SHT31;59989;46.220;19.888;2023-02-28T21:47:48;2.58;91.83
72114;SHT31;59989;46.220;19.888;2023-02-28T21:51:03;2.61;91.74
72114;SHT31;59989;46.220;19.888;2023-02-28T21:54:05;2.58;91.74
72114;SHT31;59989;46.220;19.888;2023-02-28T21:57:08;2.60;91.74
72114;SHT31;59989;46.220;19.888;2023-02-28T22:00:11;2.61;91.78
72114;SHT31;59989;46.220;19.888;2023-02-28T22:03:15;2.58;91.73